Time;durP1;ratioP1;P1;durP2;ratioP2;P2;SDS_P1;SDS_P2;PMS_P1;PMS_P2;Temp;Humidity;BMP_temperature;BMP_pressure;BME280_temperature;BME280_humidity;BME280_pressure;Samples;Min_cycle;Max_cycle;Signal;HPM_P1;HPM_P2
2023/10/12 00:00:42;;;;;;;10.43;6.57;;;;;;;25.26;99.09;101216.81;5035123;28;20066;-41
2023/10/12 00:03:08;;;;;;;10.00;6.05;;;;;;;25.25;99.15;101216.03;5053390;28;20779;-41
2023/10/12 00:05:34;;;;;;;11.20;6.78;;;;;;;25.27;98.92;101210.16;5051429;28;20042;-52
2023/10/12 00:08:08;;;;;;;10.80;6.28;;;;;;;25.27;98.93;101205.44;5051721;28;20384;-51
2023/10/12 00:10:44;;;;;;;11.25;6.40;;;;;;;25.26;98.81;101211.28;5052022;28;20855;-51
2023/10/12 00:13:13;;;;;;;13.65;6.50;;;;;;;25.28;98.53;101232.00;5051812;28;20028;-50
2023/10/12 00:15:45;;;;;;;11.88;6.45;;;;;;;25.27;98.67;101227.63;5033531;28;20041;-50
2023/10/12 00:18:14;;;;;;;9.63;6.38;;;;;;;25.27;98.81;101235.94;5018803;28;20066;-51
2023/10/12 00:20:40;;;;;;;9.23;6.25;;;;;;;25.26;98.85;101231.53;5048272;28;20696;-52
2023/10/12 00:23:10;;;;;;;14.40;6.50;;;;;;;25.25;98.82;101240.97;5051165;28;20036;-50
2023/10/12 00:25:54;;;;;;;10.63;5.80;;;;;;;25.27;98.59;101241.50;5032794;28;20411;-49
2023/10/12 00:28:22;;;;;;;10.82;5.90;;;;;;;25.28;98.74;101237.56;5052937;28;20163;-50
2023/10/12 00:30:50;;;;;;;11.68;6.45;;;;;;;25.28;98.54;101240.34;5052286;28;20229;-52
2023/10/12 00:33:17;;;;;;;14.05;6.40;;;;;;;25.28;98.49;101231.22;5051773;28;20498;-41
2023/10/12 00:35:48;;;;;;;8.85;5.85;;;;;;;25.27;98.76;101243.44;5051303;28;20059;-42
2023/10/12 00:38:18;;;;;;;13.52;6.07;;;;;;;25.26;98.39;101245.41;5052245;28;20651;-41
2023/10/12 00:40:57;;;;;;;11.18;6.22;;;;;;;25.26;98.73;101239.03;5051471;28;20053;-41
2023/10/12 00:43:32;;;;;;;12.35;6.22;;;;;;;25.25;98.66;101238.22;5052103;28;20092;-41
2023/10/12 00:45:58;;;;;;;12.65;5.75;;;;;;;25.24;98.89;101239.34;5051491;28;20536;-41
2023/10/12 00:48:29;;;;;;;12.05;6.15;;;;;;;25.25;98.66;101254.84;5051041;28;20392;-41
2023/10/12 00:50:56;;;;;;;12.80;6.72;;;;;;;25.25;98.54;101252.09;5051158;28;20166;-41
2023/10/12 00:53:23;;;;;;;11.98;6.45;;;;;;;25.24;98.73;101247.66;5051059;28;20032;-41
2023/10/12 00:55:50;;;;;;;12.57;6.32;;;;;;;25.24;98.92;101244.09;5051531;28;20043;-41
2023/10/12 00:58:17;;;;;;;10.75;6.28;;;;;;;25.24;98.93;101233.78;5050812;28;20348;-41
2023/10/12 01:00:46;;;;;;;11.43;6.35;;;;;;;25.27;98.87;101218.47;5051833;28;20174;-41
2023/10/12 01:06:20;;;;;;;9.93;5.97;;;;;;;25.33;98.46;101235.81;5051641;28;20618;-41
2023/10/12 01:08:47;;;;;;;11.82;5.85;;;;;;;25.37;98.15;101231.25;5050080;28;20032;-42
2023/10/12 01:11:26;;;;;;;11.95;6.13;;;;;;;25.38;98.28;101230.97;5052692;28;20032;-41
2023/10/12 01:16:42;;;;;;;9.70;5.28;;;;;;;25.43;97.72;101221.69;5050535;28;20079;-41
2023/10/12 01:19:08;;;;;;;10.40;5.90;;;;;;;25.45;97.73;101220.22;5050306;28;20271;-41
2023/10/12 01:21:37;;;;;;;10.52;5.68;;;;;;;25.44;97.57;101213.06;5049452;28;21361;-41
2023/10/12 01:24:12;;;;;;;11.88;5.43;;;;;;;25.44;97.39;101210.28;5051427;28;20060;-41
2023/10/12 01:26:48;;;;;;;11.68;5.40;;;;;;;25.41;97.52;101204.56;5049378;28;20124;-52
2023/10/12 01:29:20;;;;;;;9.93;5.50;;;;;;;25.40;97.54;101208.47;5050457;28;20032;-49
2023/10/12 01:32:06;;;;;;;9.65;5.43;;;;;;;25.37;97.75;101212.69;5050237;28;20508;-42
2023/10/12 01:34:36;;;;;;;12.43;5.18;;;;;;;25.35;97.75;101203.03;5049843;28;21155;-41
2023/10/12 01:37:48;;;;;;;9.73;5.38;;;;;;;25.32;98.11;101215.56;5033051;28;20638;-52
2023/10/12 01:45:04;;;;;;;11.60;5.38;;;;;;;25.25;98.22;101209.66;5050646;28;20040;-52
2023/10/12 01:47:29;;;;;;;9.43;4.78;;;;;;;25.22;98.41;101216.66;5027518;28;20055;-52
2023/10/12 01:49:56;;;;;;;8.70;4.90;;;;;;;25.21;98.46;101212.25;5031786;28;20382;-53
2023/10/12 01:52:22;;;;;;;8.55;4.68;;;;;;;25.21;98.61;101197.56;5049527;28;20032;-52
2023/10/12 01:54:48;;;;;;;11.48;5.38;;;;;;;25.21;98.64;101192.00;5050239;28;20093;-53
2023/10/12 01:57:18;;;;;;;16.15;4.93;;;;;;;25.22;98.88;101207.50;5049077;28;20031;-52
2023/10/12 01:59:43;;;;;;;10.40;4.85;;;;;;;25.21;98.53;101205.88;5048224;28;20063;-54
2023/10/12 02:02:13;;;;;;;9.98;5.10;;;;;;;25.20;98.73;101210.63;5046639;28;20662;-51
2023/10/12 02:04:40;;;;;;;11.80;4.63;;;;;;;25.18;98.74;101210.09;5049016;28;20088;-51
2023/10/12 02:07:10;;;;;;;10.02;5.25;;;;;;;25.18;98.96;101203.75;5034527;28;20493;-52
2023/10/12 02:09:35;;;;;;;9.48;4.60;;;;;;;25.16;99.03;101201.28;5047703;28;20670;-52
2023/10/12 02:12:11;;;;;;;10.23;4.43;;;;;;;25.14;99.07;101193.28;5031788;28;20137;-51
2023/10/12 02:14:39;;;;;;;7.93;4.80;;;;;;;25.13;99.15;101202.72;5062831;28;20054;-53
2023/10/12 02:17:08;;;;;;;8.32;4.20;;;;;;;25.11;99.26;101193.94;5049429;28;20136;-53
2023/10/12 02:19:55;;;;;;;11.10;4.80;;;;;;;25.10;99.18;101186.75;5048705;28;20028;-50
2023/10/12 02:22:24;;;;;;;7.70;4.43;;;;;;;25.09;99.43;101184.25;5049411;28;20336;-53
2023/10/12 02:25:32;;;;;;;6.88;4.28;;;;;;;25.07;99.45;101170.72;5048737;28;20496;-52
2023/10/12 02:27:41;;;;;;;10.45;4.50;;;;;;;25.05;99.42;101178.56;5040060;28;20044;-49
2023/10/12 02:30:13;;;;;;;6.45;3.80;;;;;;;25.05;99.65;101178.56;5049040;28;20547;-52
2023/10/12 02:32:48;;;;;;;8.30;4.47;;;;;;;25.05;99.73;101173.03;5048768;28;20039;-53
2023/10/12 02:35:16;;;;;;;10.88;4.30;;;;;;;25.04;99.53;101170.53;5048355;28;20047;-51
2023/10/12 02:37:42;;;;;;;7.95;3.97;;;;;;;25.03;99.85;101175.28;5049905;28;20439;-41
2023/10/12 02:40:09;;;;;;;11.18;4.30;;;;;;;25.02;99.83;101181.97;5049580;28;20730;-41
2023/10/12 02:42:42;;;;;;;7.82;4.20;;;;;;;25.01;99.98;101176.72;5049016;28;20036;-42
2023/10/12 02:45:11;;;;;;;8.32;3.90;;;;;;;25.01;99.88;101179.50;5048876;28;20460;-41
2023/10/12 02:47:41;;;;;;;6.90;3.70;;;;;;;25.00;99.84;101189.75;5049401;28;20047;-53
2023/10/12 02:52:35;;;;;;;10.63;4.35;;;;;;;25.00;100.00;101192.53;5048661;28;21581;-50
2023/10/12 02:57:53;;;;;;;8.82;4.50;;;;;;;24.99;99.74;101179.81;5049678;28;20050;-52
2023/10/12 03:00:22;;;;;;;8.55;3.85;;;;;;;24.99;100.00;101180.63;5049051;28;20673;-54
2023/10/12 03:02:52;;;;;;;9.38;3.75;;;;;;;24.99;99.96;101180.63;5048069;28;20043;-53
2023/10/12 03:05:18;;;;;;;7.85;3.78;;;;;;;24.97;100.00;101191.22;5049540;28;20044;-53
2023/10/12 03:07:44;;;;;;;7.53;3.70;;;;;;;24.97;99.90;101205.06;5049786;28;20692;-51
2023/10/12 03:10:26;;;;;;;7.05;3.53;;;;;;;24.97;100.00;101195.97;5048829;28;20035;-41
2023/10/12 03:12:55;;;;;;;5.00;3.38;;;;;;;24.96;99.95;101186.81;5030082;28;20043;-42
2023/10/12 03:15:30;;;;;;;9.35;3.90;;;;;;;24.96;100.00;101186.00;5048713;28;20447;-41
2023/10/12 03:17:58;;;;;;;8.60;4.10;;;;;;;24.96;100.00;101181.25;5049384;28;20482;-41
2023/10/12 03:20:28;;;;;;;7.25;3.15;;;;;;;24.95;100.00;101190.75;5048435;28;20032;-42
2023/10/12 03:22:59;;;;;;;7.45;3.50;;;;;;;24.94;100.00;101189.09;5048728;28;20206;-52
2023/10/12 03:25:43;;;;;;;6.25;3.00;;;;;;;24.93;100.00;101203.25;5048052;28;20036;-41
2023/10/12 03:28:13;;;;;;;6.10;3.40;;;;;;;24.92;100.00;101201.63;5048717;28;20134;-41
2023/10/12 03:30:53;;;;;;;6.72;3.30;;;;;;;24.91;100.00;101203.56;5049461;28;20094;-50
2023/10/12 03:33:19;;;;;;;9.68;3.70;;;;;;;24.91;100.00;101211.09;5048347;28;20039;-51
2023/10/12 03:35:52;;;;;;;8.18;3.30;;;;;;;24.90;100.00;101218.56;5048851;28;20077;-53
2023/10/12 03:38:19;;;;;;;6.22;3.28;;;;;;;24.89;100.00;101216.13;5049727;28;20155;-51
2023/10/12 03:43:20;;;;;;;5.75;3.13;;;;;;;24.89;100.00;101211.38;5048867;28;20556;-51
2023/10/12 03:46:32;;;;;;;6.88;3.08;;;;;;;24.90;100.00;101221.34;5048536;28;20299;-53
2023/10/12 03:49:04;;;;;;;7.45;3.70;;;;;;;24.90;100.00;101224.09;5020329;28;20922;-51
2023/10/12 03:51:41;;;;;;;5.03;3.00;;;;;;;24.90;100.00;101218.56;5047733;28;20039;-53
2023/10/12 03:56:51;;;;;;;;;;;;;;;24.91;100.00;101216.63;5049490;28;20054;-53
2023/10/12 03:59:28;;;;;;;4.43;2.80;;;;;;;24.92;100.00;101218.28;5048003;28;20040;-52
2023/10/12 04:01:54;;;;;;;4.43;3.03;;;;;;;24.90;100.00;101210.25;5047830;28;20568;-51
2023/10/12 04:04:28;;;;;;;5.60;2.92;;;;;;;24.89;100.00;101219.69;5047786;28;20573;-41
2023/10/12 04:09:31;;;;;;;4.35;2.65;;;;;;;24.87;100.00;101213.66;5049025;28;20035;-41
2023/10/12 04:14:54;;;;;;;5.10;2.72;;;;;;;24.85;100.00;101212.34;5018946;28;20118;-41
2023/10/12 04:20:00;;;;;;;5.85;2.75;;;;;;;24.83;100.00;101221.78;5048419;28;20047;-41
2023/10/12 04:22:26;;;;;;;7.28;2.95;;;;;;;24.82;100.00;101224.88;5048135;28;21443;-52
2023/10/12 04:24:55;;;;;;;4.78;2.50;;;;;;;24.80;100.00;101236.25;5050960;28;20065;-41
2023/10/12 04:27:38;;;;;;;5.13;2.30;;;;;;;24.80;100.00;101247.34;5051307;28;20089;-52
2023/10/12 04:32:57;;;;;;;5.60;2.58;;;;;;;24.80;100.00;101241.81;5052134;28;20896;-41
2023/10/12 04:38:19;;;;;;;5.10;2.33;;;;;;;24.79;100.00;101250.44;5033162;28;20438;-41
2023/10/12 04:41:13;;;;;;;3.58;2.55;;;;;;;24.79;100.00;101253.22;5051892;28;21251;-52
2023/10/12 04:43:29;;;;;;;5.55;2.70;;;;;;;24.78;100.00;101257.13;5051995;28;20562;-53
2023/10/12 04:48:41;;;;;;;5.32;2.20;;;;;;;24.79;100.00;101267.06;5052266;28;20556;-52
2023/10/12 04:51:07;;;;;;;3.63;2.20;;;;;;;24.77;100.00;101264.63;5051177;28;21297;-54
2023/10/12 04:53:53;;;;;;;3.65;2.20;;;;;;;24.78;100.00;101269.03;5051031;28;20389;-52
2023/10/12 04:56:19;;;;;;;3.92;2.20;;;;;;;24.78;100.00;101263.50;5051933;28;20032;-51
2023/10/12 04:58:57;;;;;;;3.85;2.35;;;;;;;24.78;100.00;101265.44;5065267;28;20695;-51
2023/10/12 05:01:38;;;;;;;3.53;2.30;;;;;;;24.79;100.00;101264.31;5050680;28;20052;-51
2023/10/12 05:04:19;;;;;;;4.63;2.40;;;;;;;24.79;100.00;101259.56;5050487;28;20035;-53
2023/10/12 05:07:12;;;;;;;5.72;2.13;;;;;;;24.79;100.00;101264.31;5050991;28;20036;-53
2023/10/12 05:09:33;;;;;;;6.70;2.25;;;;;;;24.80;100.00;101274.25;5049609;28;20588;-41
2023/10/12 05:11:58;;;;;;;15.40;2.63;;;;;;;24.83;100.00;101273.63;5050057;28;20035;-48
2023/10/12 05:14:25;;;;;;;4.70;2.00;;;;;;;24.85;100.00;101279.69;5050731;28;20510;-42
2023/10/12 05:16:51;;;;;;;4.13;2.30;;;;;;;24.89;100.00;101282.66;5050134;28;20124;-43
2023/10/12 05:19:16;;;;;;;5.68;2.20;;;;;;;24.91;100.00;101283.16;5049677;28;20032;-40
2023/10/12 05:21:43;;;;;;;3.72;1.92;;;;;;;24.94;100.00;101290.84;5050425;28;21179;-42
2023/10/12 05:24:09;;;;;;;5.78;2.00;;;;;;;24.94;100.00;101294.44;5051037;28;20182;-43
2023/10/12 05:26:36;;;;;;;5.10;1.92;;;;;;;24.99;100.00;101296.25;5050916;28;20096;-40
2023/10/12 05:29:27;;;;;;;3.97;1.95;;;;;;;25.00;100.00;101292.34;5049949;28;20603;-41
2023/10/12 05:32:05;;;;;;;8.23;1.63;;;;;;;25.01;100.00;101295.97;5050559;28;20094;-53
2023/10/12 05:39:51;;;;;;;;;;;;;;;24.99;100.00;101304.56;5050674;28;20039;-45
2023/10/12 05:42:22;;;;;;;3.78;1.70;;;;;;;25.03;100.00;101310.31;5050707;28;20140;-41
2023/10/12 05:44:49;;;;;;;6.07;1.63;;;;;;;25.02;100.00;101303.16;5050230;28;20234;-43
2023/10/12 05:47:17;;;;;;;3.40;1.98;;;;;;;25.03;100.00;101302.00;5050534;28;20043;-43
2023/10/12 05:49:45;;;;;;;5.90;1.70;;;;;;;25.04;100.00;101304.47;5050840;28;20053;-45
2023/10/12 05:52:11;;;;;;;1.77;1.40;;;;;;;25.05;100.00;101303.34;5034451;28;20516;-40
2023/10/12 05:54:40;;;;;;;6.22;1.90;;;;;;;25.06;100.00;101302.19;5032587;28;20396;-42
2023/10/12 05:57:25;;;;;;;3.75;1.42;;;;;;;25.07;100.00;101303.81;5049922;28;20035;-55
2023/10/12 05:59:50;;;;;;;2.28;1.38;;;;;;;25.07;100.00;101308.56;5028543;28;20044;-57
2023/10/12 06:02:18;;;;;;;2.92;1.42;;;;;;;25.07;100.00;101317.69;5048011;28;21379;-58
2023/10/12 06:04:44;;;;;;;2.20;1.38;;;;;;;25.08;100.00;101313.78;5049824;28;20040;-56
2023/10/12 06:07:11;;;;;;;1.20;1.10;;;;;;;25.11;100.00;101318.72;5049300;28;20123;-57
2023/10/12 06:09:37;;;;;;;3.75;1.27;;;;;;;25.10;100.00;101317.06;5050213;28;20484;-54
2023/10/12 06:12:12;;;;;;;2.45;1.40;;;;;;;25.10;100.00;101316.25;5048915;28;20031;-57
2023/10/12 06:14:38;;;;;;;2.33;1.27;;;;;;;25.10;100.00;101319.84;5049579;28;20064;-52
2023/10/12 06:17:07;;;;;;;2.78;1.27;;;;;;;25.09;100.00;101332.06;5048551;28;20035;-56
2023/10/12 06:19:36;;;;;;;2.40;1.25;;;;;;;25.09;100.00;101329.28;5049770;28;20031;-56
2023/10/12 06:24:54;;;;;;;3.90;1.40;;;;;;;25.11;100.00;101328.97;5049635;28;20051;-57
2023/10/12 06:29:46;;;;;;;2.17;1.23;;;;;;;25.13;100.00;101335.84;5049480;28;20044;-54
2023/10/12 06:32:25;;;;;;;2.17;1.10;;;;;;;25.12;100.00;101336.97;5050543;28;20225;-50
2023/10/12 06:35:13;;;;;;;1.58;0.95;;;;;;;25.12;100.00;101341.72;5050346;28;20039;-51
2023/10/12 06:45:51;;;;;;;2.05;1.00;;;;;;;25.12;100.00;101361.13;5049346;28;20051;-42
2023/10/12 06:53:54;;;;;;;14.48;1.60;;;;;;;25.12;100.00;101370.25;4970285;28;20046;-52
2023/10/12 06:59:11;;;;;;;7.03;1.50;;;;;;;25.07;100.00;101375.13;5050965;28;20036;-54
2023/10/12 07:04:39;;;;;;;4.25;1.20;;;;;;;25.02;100.00;101378.81;5049379;28;20075;-53
2023/10/12 07:07:10;;;;;;;8.80;1.30;;;;;;;24.97;100.00;101381.72;5049242;28;20122;-50
2023/10/12 07:09:46;;;;;;;2.78;1.35;;;;;;;24.94;100.00;101372.06;5048783;28;20349;-52
2023/10/12 07:12:17;;;;;;;5.60;1.15;;;;;;;24.93;100.00;101375.13;5048571;28;20107;-52
2023/10/12 07:14:46;;;;;;;8.90;1.50;;;;;;;24.89;100.00;101369.38;5048585;28;20167;-53
2023/10/12 07:17:12;;;;;;;3.92;1.50;;;;;;;24.88;100.00;101372.47;5015735;28;20039;-53
2023/10/12 07:19:42;;;;;;;2.05;1.25;;;;;;;24.86;100.00;101383.88;5049106;28;20636;-53
2023/10/12 07:22:15;;;;;;;5.35;1.38;;;;;;;24.84;100.00;101388.91;5049158;28;20321;-51
2023/10/12 07:24:43;;;;;;;3.38;1.38;;;;;;;24.83;100.00;101395.59;5049831;28;20036;-52
2023/10/12 07:27:11;;;;;;;2.10;1.30;;;;;;;24.83;100.00;101395.59;5048364;28;20032;-52
2023/10/12 07:29:37;;;;;;;1.90;1.20;;;;;;;24.81;100.00;101400.63;5049360;28;20088;-51
2023/10/12 07:32:26;;;;;;;5.90;2.08;;;;;;;24.79;100.00;101394.56;5048820;28;20257;-51
2023/10/12 07:34:57;;;;;;;2.60;1.30;;;;;;;24.79;99.99;101403.69;5048215;28;20050;-52
2023/10/12 07:37:23;;;;;;;2.40;1.40;;;;;;;24.76;99.78;101409.88;5048435;28;20036;-53
2023/10/12 07:39:50;;;;;;;2.28;1.33;;;;;;;24.74;99.87;101414.91;5048393;28;20158;-53
2023/10/12 07:42:25;;;;;;;3.63;1.30;;;;;;;24.73;99.93;101413.25;5049218;28;20557;-50
2023/10/12 07:44:59;;;;;;;2.17;1.60;;;;;;;24.72;99.75;101411.63;5048744;28;20065;-52
2023/10/12 07:47:46;;;;;;;2.28;1.40;;;;;;;24.71;99.49;101400.84;5049603;28;20035;-50
2023/10/12 07:50:15;;;;;;;1.23;1.13;;;;;;;24.72;99.43;101402.47;5049193;28;20492;-52
2023/10/12 07:52:53;;;;;;;2.83;1.20;;;;;;;24.71;99.42;101407.22;5050808;28;20598;-50
2023/10/12 07:55:19;;;;;;;2.00;1.20;;;;;;;24.71;99.27;101414.69;5048717;28;20024;-53
2023/10/12 07:57:46;;;;;;;1.23;0.95;;;;;;;24.70;99.37;101405.56;5048034;28;20040;-53
2023/10/12 08:24:45;;;;;;;7.20;1.67;;;;;;;24.62;99.54;101414.56;5052957;28;20120;-52
2023/10/12 08:31:54;;;;;;;5.45;1.35;;;;;;;24.62;99.39;101425.66;5052089;28;20122;-52
2023/10/12 08:34:41;;;;;;;6.50;1.40;;;;;;;24.62;99.57;101431.19;5053176;28;20610;-50
2023/10/12 08:39:38;;;;;;;4.65;1.50;;;;;;;24.62;99.63;101432.03;5052925;28;20040;-43
2023/10/12 08:44:58;;;;;;;8.52;2.58;;;;;;;24.68;100.00;101438.31;5040537;28;20097;-44
2023/10/12 08:52:27;;;;;;;10.07;1.77;;;;;;;24.76;100.00;101429.28;5054348;28;20040;-52
2023/10/12 08:55:13;;;;;;;9.20;1.27;;;;;;;24.77;100.00;101419.84;5053413;28;20028;-47
2023/10/12 08:57:43;;;;;;;9.07;1.38;;;;;;;24.79;100.00;101423.09;5052960;28;20059;-43
2023/10/12 09:03:07;;;;;;;5.00;1.20;;;;;;;24.85;100.00;101396.09;5051216;28;20145;-55
2023/10/12 09:05:34;;;;;;;6.25;1.63;;;;;;;24.89;100.00;101393.53;5054718;28;20035;-51
2023/10/12 09:13:35;;;;;;;5.50;1.20;;;;;;;24.90;100.00;101390.44;5054435;28;20048;-55
2023/10/12 09:16:02;;;;;;;4.75;1.38;;;;;;;24.91;100.00;101382.97;5053985;28;20038;-43
2023/10/12 09:18:30;;;;;;;3.95;1.20;;;;;;;24.91;100.00;101397.63;5053664;28;20067;-50
2023/10/12 09:28:52;;;;;;;24.08;2.28;;;;;;;25.01;100.00;101387.47;5054235;28;20044;-53
2023/10/12 09:36:55;;;;;;;12.50;1.90;;;;;;;25.06;100.00;101379.00;5053828;28;21930;-45
2023/10/12 09:39:25;;;;;;;19.33;1.92;;;;;;;25.07;100.00;101375.91;5036752;28;20517;-53
2023/10/12 09:41:55;;;;;;;36.20;3.17;;;;;;;25.10;100.00;101378.09;5058965;28;21082;-56
2023/10/12 09:44:28;;;;;;;61.35;4.70;;;;;;;25.09;100.00;101375.59;5058394;28;20650;-57
2023/10/12 09:46:57;;;;;;;30.65;3.75;;;;;;;25.06;100.00;101367.94;5056647;28;20032;-57
2023/10/12 09:49:27;;;;;;;30.30;3.05;;;;;;;25.04;100.00;101367.41;5056062;28;20388;-58
2023/10/12 09:51:54;;;;;;;14.20;2.15;;;;;;;25.00;100.00;101367.22;5056225;28;20077;-57
2023/10/12 09:54:29;;;;;;;13.52;1.98;;;;;;;24.96;100.00;101355.91;5056430;28;20709;-57
2023/10/12 09:57:16;;;;;;;12.95;1.73;;;;;;;24.93;100.00;101358.50;5036619;28;20480;-56
2023/10/12 09:59:51;;;;;;;8.55;1.58;;;;;;;24.91;100.00;101356.03;5056666;28;20606;-58
2023/10/12 10:02:27;;;;;;;11.02;2.65;;;;;;;24.88;99.91;101356.69;5054660;28;20109;-57
2023/10/12 10:05:39;;;;;;;11.13;1.73;;;;;;;24.85;99.95;101348.97;5057310;28;20042;-57
2023/10/12 10:07:56;;;;;;;5.55;1.38;;;;;;;24.83;99.63;101354.00;5057269;28;20036;-57
2023/10/12 10:10:35;;;;;;;4.03;1.38;;;;;;;24.80;99.88;101341.59;5054978;28;20536;-57
2023/10/12 10:13:10;;;;;;;6.90;1.40;;;;;;;24.79;99.67;101333.59;5055084;28;20054;-58
2023/10/12 10:15:55;;;;;;;5.47;1.30;;;;;;;24.75;99.44;101341.72;5056122;28;20115;-57
2023/10/12 10:18:26;;;;;;;4.50;1.20;;;;;;;24.71;99.49;101335.16;5054929;28;20040;-56
2023/10/12 10:21:11;;;;;;;4.75;1.30;;;;;;;24.66;99.72;101336.09;5054499;28;20039;-57
2023/10/12 10:23:39;;;;;;;3.83;1.45;;;;;;;24.59;99.59;101334.84;5055693;28;20113;-57
2023/10/12 10:26:34;;;;;;;3.80;1.35;;;;;;;24.61;99.78;101324.25;5055819;28;20517;-57
2023/10/12 10:29:05;;;;;;;4.82;1.20;;;;;;;24.60;99.68;101323.44;5055940;28;20077;-57
2023/10/12 10:31:35;;;;;;;5.93;1.60;;;;;;;24.58;99.43;101322.13;5056007;28;20115;-57
2023/10/12 10:34:05;;;;;;;9.20;1.40;;;;;;;24.59;99.35;101321.81;5055806;28;20089;-57
2023/10/12 10:36:35;;;;;;;4.80;1.20;;;;;;;24.58;99.28;101317.38;5055663;28;20055;-57
2023/10/12 10:41:54;;;;;;;4.05;1.20;;;;;;;24.58;99.01;101314.63;5034360;28;20040;-57
2023/10/12 10:44:22;;;;;;;2.38;1.08;;;;;;;24.58;99.14;101311.84;5055154;28;20045;-57
2023/10/12 10:46:54;;;;;;;4.63;1.05;;;;;;;24.57;99.12;101307.44;5056445;28;20362;-57
2023/10/12 10:49:20;;;;;;;3.15;1.13;;;;;;;24.56;98.83;101310.50;5056030;28;20039;-57
2023/10/12 10:51:48;;;;;;;3.55;1.20;;;;;;;24.54;98.70;101310.84;5055839;28;20491;-57
2023/10/12 10:54:18;;;;;;;2.13;1.10;;;;;;;24.54;98.86;101310.00;5055723;28;20031;-59
2023/10/12 10:56:48;;;;;;;3.63;1.30;;;;;;;24.54;98.76;101308.06;5055917;28;20089;-46
2023/10/12 10:59:17;;;;;;;1.40;1.10;;;;;;;24.51;98.83;101314.22;5055509;28;20094;-46
2023/10/12 11:01:50;;;;;;;3.30;1.25;;;;;;;24.53;98.52;101314.72;5055376;28;20047;-43
2023/10/12 11:04:41;;;;;;;2.40;1.63;;;;;;;24.52;98.80;101316.69;5055539;28;20028;-44
2023/10/12 11:07:15;;;;;;;3.05;1.48;;;;;;;24.50;98.63;101320.91;5055300;28;20388;-44
2023/10/12 11:12:20;;;;;;;4.75;1.25;;;;;;;24.49;98.68;101302.63;5054983;28;20043;-43
2023/10/12 11:14:52;;;;;;;4.60;1.45;;;;;;;24.51;98.62;101294.81;5055325;28;20470;-43
2023/10/12 11:17:21;;;;;;;2.60;1.45;;;;;;;24.49;98.65;101297.91;5054790;28;20339;-43
2023/10/12 11:19:49;;;;;;;4.93;2.10;;;;;;;24.50;98.31;101291.25;5055407;28;20028;-57
2023/10/12 11:22:15;;;;;;;8.40;2.50;;;;;;;24.51;98.26;101298.44;5041126;28;20047;-45
2023/10/12 11:24:50;;;;;;;13.77;3.58;;;;;;;24.50;98.49;101285.69;5055748;28;20043;-44
2023/10/12 11:27:31;;;;;;;17.67;4.43;;;;;;;24.48;98.52;101285.19;5055850;28;20418;-44
2023/10/12 11:30:00;;;;;;;26.90;4.97;;;;;;;24.47;98.40;101278.00;5055728;28;20039;-46
2023/10/12 11:32:29;;;;;;;26.70;5.10;;;;;;;24.47;98.83;101275.22;5056163;28;20558;-43
2023/10/12 11:34:59;;;;;;;26.58;5.28;;;;;;;24.48;98.57;101270.53;5059218;28;20088;-57
2023/10/12 11:37:29;;;;;;;24.75;5.55;;;;;;;24.46;98.72;101262.53;5074202;28;20048;-57
2023/10/12 11:39:55;;;;;;;21.92;5.00;;;;;;;24.46;98.89;101262.53;5059677;28;20685;-58
2023/10/12 11:42:20;;;;;;;21.35;5.25;;;;;;;24.45;98.89;101268.34;5059126;28;21283;-58
2023/10/12 11:44:48;;;;;;;20.50;5.20;;;;;;;24.43;98.81;101246.50;5059077;28;20124;-57
2023/10/12 11:47:23;;;;;;;22.15;5.03;;;;;;;24.43;99.01;101243.75;5058480;28;20085;-58
2023/10/12 11:49:55;;;;;;;17.20;4.72;;;;;;;24.42;99.15;101247.63;5058929;28;20059;-58
2023/10/12 11:52:30;;;;;;;18.08;4.75;;;;;;;24.40;99.48;101249.94;5058813;28;21427;-58
2023/10/12 11:55:03;;;;;;;15.18;4.60;;;;;;;24.39;99.42;101239.13;5058773;28;20081;-54
2023/10/12 11:57:28;;;;;;;13.07;4.35;;;;;;;24.40;99.44;101243.53;5058726;28;20113;-57
2023/10/12 11:59:54;;;;;;;15.98;5.20;;;;;;;24.39;99.62;101248.28;5058543;28;20919;-58
2023/10/12 12:02:22;;;;;;;20.02;4.25;;;;;;;24.38;99.69;101238.31;5058320;28;20029;-58
2023/10/12 12:04:50;;;;;;;16.02;4.25;;;;;;;24.37;99.75;101239.44;5058503;28;20035;-58
2023/10/12 12:07:15;;;;;;;17.58;4.32;;;;;;;24.39;99.52;101241.91;5038058;28;21950;-58
2023/10/12 12:09:41;;;;;;;13.82;4.47;;;;;;;24.38;99.71;101243.88;5058194;28;20036;-58
2023/10/12 12:12:12;;;;;;;16.40;3.67;;;;;;;24.36;99.76;101251.66;5059214;28;20389;-57
2023/10/12 12:14:46;;;;;;;13.88;4.07;;;;;;;24.38;99.80;101251.34;5058224;28;20041;-57
2023/10/12 12:17:11;;;;;;;16.02;4.38;;;;;;;24.36;99.82;101254.44;5058814;28;20043;-58
2023/10/12 12:19:38;;;;;;;24.73;6.13;;;;;;;24.34;99.68;101268.59;5058639;28;20036;-58
2023/10/12 12:22:04;;;;;;;16.80;5.57;;;;;;;24.30;99.85;101273.13;5057920;28;20043;-58
2023/10/12 12:24:29;;;;;;;25.73;6.47;;;;;;;24.30;100.00;101291.69;5073533;28;20047;-57
2023/10/12 12:26:55;;;;;;;27.52;7.22;;;;;;;24.30;100.00;101300.81;5057750;28;20039;-57
2023/10/12 12:29:27;;;;;;;32.30;8.60;;;;;;;24.32;99.92;101281.13;5058439;28;20361;-58
2023/10/12 12:31:54;;;;;;;41.22;9.20;;;;;;;24.31;100.00;101274.75;5057144;28;20036;-58
2023/10/12 12:34:38;;;;;;;33.10;8.50;;;;;;;24.31;100.00;101266.44;5041255;28;20037;-57
2023/10/12 12:37:10;;;;;;;35.55;9.93;;;;;;;24.30;100.00;101259.28;5058813;28;20492;-57
2023/10/12 12:39:36;;;;;;;41.90;9.65;;;;;;;24.30;100.00;101256.50;5056048;28;20032;-57
2023/10/12 12:42:03;;;;;;;32.25;8.43;;;;;;;24.29;100.00;101245.72;5071679;28;20149;-58
2023/10/12 12:44:28;;;;;;;29.60;8.80;;;;;;;24.29;100.00;101242.94;5057413;28;21461;-57
2023/10/12 12:46:55;;;;;;;33.97;9.13;;;;;;;24.30;100.00;101237.13;5058490;28;20482;-57
2023/10/12 12:49:23;;;;;;;35.38;8.98;;;;;;;24.30;99.92;101231.59;5056998;28;20122;-57
2023/10/12 12:51:50;;;;;;;34.25;8.40;;;;;;;24.30;100.00;101236.28;5058633;28;20114;-43
2023/10/12 12:54:15;;;;;;;29.98;7.75;;;;;;;24.30;99.88;101231.59;5056196;28;20435;-58
2023/10/12 12:56:42;;;;;;;22.13;7.03;;;;;;;24.28;100.00;101233.84;5047303;28;20325;-56
2023/10/12 12:59:10;;;;;;;27.13;8.00;;;;;;;24.26;99.82;101233.31;5048961;28;20043;-57
2023/10/12 13:01:38;;;;;;;29.83;8.13;;;;;;;24.24;99.84;101229.22;5049843;28;20044;-57
2023/10/12 13:04:04;;;;;;;23.77;7.13;;;;;;;24.24;100.00;101235.56;5049768;28;21393;-57
2023/10/12 13:06:33;;;;;;;24.52;7.15;;;;;;;24.24;100.00;101221.72;5049440;28;20020;-57
2023/10/12 13:09:01;;;;;;;27.05;7.45;;;;;;;24.25;100.00;101197.63;5050776;28;20070;-44
2023/10/12 13:11:27;;;;;;;18.95;6.60;;;;;;;24.25;100.00;101173.50;5050275;28;20032;-46
2023/10/12 13:13:52;;;;;;;17.98;6.15;;;;;;;24.24;100.00;101169.09;5050220;28;20032;-57
2023/10/12 13:16:18;;;;;;;19.73;6.28;;;;;;;24.23;100.00;101169.41;5050963;28;20043;-57
2023/10/12 13:18:46;;;;;;;19.83;6.30;;;;;;;24.22;100.00;101176.91;5049094;28;20032;-44
2023/10/12 13:21:14;;;;;;;16.17;5.65;;;;;;;24.22;100.00;101178.84;5065083;28;20055;-43
2023/10/12 13:23:42;;;;;;;18.30;6.72;;;;;;;24.21;100.00;101182.78;5050062;28;20377;-46
2023/10/12 13:26:09;;;;;;;18.13;5.72;;;;;;;24.19;100.00;101206.06;5050024;28;20469;-45
2023/10/12 13:28:35;;;;;;;17.42;5.60;;;;;;;24.18;100.00;101207.19;5049092;28;20450;-43
2023/10/12 13:31:01;;;;;;;16.38;5.38;;;;;;;24.17;100.00;101201.97;5049021;28;20054;-56
2023/10/12 13:33:28;;;;;;;15.95;5.70;;;;;;;24.17;100.00;101183.38;5048704;28;20040;-56
2023/10/12 13:35:56;;;;;;;14.27;5.13;;;;;;;24.16;100.00;101200.31;5032885;28;20742;-57
2023/10/12 13:38:22;;;;;;;19.60;5.55;;;;;;;24.15;100.00;101207.78;5049349;28;20339;-56
2023/10/12 13:40:48;;;;;;;10.73;5.13;;;;;;;24.16;100.00;101201.13;5049399;28;20057;-57
2023/10/12 13:43:14;;;;;;;15.90;5.18;;;;;;;24.16;100.00;101208.63;5064040;28;20031;-57
2023/10/12 13:45:49;;;;;;;16.48;5.40;;;;;;;24.15;100.00;101205.00;5049526;28;20479;-44
2023/10/12 13:48:18;;;;;;;13.27;5.13;;;;;;;24.15;100.00;101209.75;5049454;28;20511;-56
2023/10/12 13:50:50;;;;;;;13.20;4.80;;;;;;;24.13;100.00;101212.84;5048588;28;20036;-56